sensor_id;sensor_type;location;lat;lon;timestamp;pressure;altitude;pressure_sealevel;temperature;humidity
53246;BME280;39569;51.090;-1.786;2023-07-28T00:01:33;99904.03;;;29.34;43.92
53246;BME280;39569;51.090;-1.786;2023-07-28T00:04:00;99907.97;;;29.20;43.97
53246;BME280;39569;51.090;-1.786;2023-07-28T00:06:26;99908.84;;;28.76;44.89
53246;BME280;39569;51.090;-1.786;2023-07-28T00:08:53;99904.06;;;28.90;44.71
53246;BME280;39569;51.090;-1.786;2023-07-28T00:11:20;99897.50;;;28.99;44.41
53246;BME280;39569;51.090;-1.786;2023-07-28T00:13:47;99907.66;;;28.90;44.01
53246;BME280;39569;51.090;-1.786;2023-07-28T00:16:15;99906.06;;;28.67;44.89
53246;BME280;39569;51.090;-1.786;2023-07-28T00:18:41;99899.56;;;28.63;44.82
53246;BME280;39569;51.090;-1.786;2023-07-28T00:21:08;99912.25;;;29.03;44.09
53246;BME280;39569;51.090;-1.786;2023-07-28T00:23:35;99906.06;;;28.98;44.00
53246;BME280;39569;51.090;-1.786;2023-07-28T00:26:02;99903.16;;;28.50;45.15
53246;BME280;39569;51.090;-1.786;2023-07-28T00:28:28;99905.66;;;28.60;44.76
53246;BME280;39569;51.090;-1.786;2023-07-28T00:30:55;99901.75;;;29.05;43.83
53246;BME280;39569;51.090;-1.786;2023-07-28T00:33:23;99903.75;;;28.61;44.82
53246;BME280;39569;51.090;-1.786;2023-07-28T00:35:50;99891.28;;;28.85;44.06
53246;BME280;39569;51.090;-1.786;2023-07-28T00:38:17;99895.59;;;28.34;45.02
53246;BME280;39569;51.090;-1.786;2023-07-28T00:40:43;99897.69;;;28.72;44.25
53246;BME280;39569;51.090;-1.786;2023-07-28T00:43:10;99894.91;;;28.28;44.99
53246;BME280;39569;51.090;-1.786;2023-07-28T00:45:37;99895.41;;;28.52;44.30
53246;BME280;39569;51.090;-1.786;2023-07-28T00:48:11;99901.75;;;28.75;44.04
53246;BME280;39569;51.090;-1.786;2023-07-28T00:50:41;99896.31;;;28.92;43.81
53246;BME280;39569;51.090;-1.786;2023-07-28T00:53:08;99898.72;;;28.85;43.73
53246;BME280;39569;51.090;-1.786;2023-07-28T00:55:35;99907.09;;;28.80;43.85
53246;BME280;39569;51.090;-1.786;2023-07-28T00:58:02;99900.59;;;28.76;43.81
53246;BME280;39569;51.090;-1.786;2023-07-28T01:00:28;99895.06;;;28.67;44.22
53246;BME280;39569;51.090;-1.786;2023-07-28T01:02:55;99896.31;;;28.61;44.08
53246;BME280;39569;51.090;-1.786;2023-07-28T01:05:27;99898.94;;;28.66;44.21
53246;BME280;39569;51.090;-1.786;2023-07-28T01:08:02;99901.19;;;28.64;43.93
53246;BME280;39569;51.090;-1.786;2023-07-28T01:10:32;99900.56;;;28.67;43.87
53246;BME280;39569;51.090;-1.786;2023-07-28T01:12:59;99900.06;;;28.65;44.12
53246;BME280;39569;51.090;-1.786;2023-07-28T01:15:26;99891.00;;;28.65;44.06
53246;BME280;39569;51.090;-1.786;2023-07-28T01:17:53;99895.84;;;28.68;44.07
53246;BME280;39569;51.090;-1.786;2023-07-28T01:20:20;99898.00;;;28.71;44.31
53246;BME280;39569;51.090;-1.786;2023-07-28T01:23:05;99901.75;;;28.75;44.20
53246;BME280;39569;51.090;-1.786;2023-07-28T01:25:43;99904.34;;;28.80;44.00
53246;BME280;39569;51.090;-1.786;2023-07-28T01:28:15;99912.06;;;28.69;44.46
53246;BME280;39569;51.090;-1.786;2023-07-28T01:30:43;99915.25;;;28.49;44.81
53246;BME280;39569;51.090;-1.786;2023-07-28T01:33:11;99910.06;;;28.61;44.41
53246;BME280;39569;51.090;-1.786;2023-07-28T01:35:38;99904.78;;;28.73;44.52
53246;BME280;39569;51.090;-1.786;2023-07-28T01:38:05;99907.59;;;28.82;44.70
53246;BME280;39569;51.090;-1.786;2023-07-28T01:40:32;99906.66;;;28.86;44.62
53246;BME280;39569;51.090;-1.786;2023-07-28T01:42:58;99907.16;;;28.88;44.14
53246;BME280;39569;51.090;-1.786;2023-07-28T01:45:26;99901.59;;;28.80;44.57
53246;BME280;39569;51.090;-1.786;2023-07-28T01:47:53;99899.28;;;28.73;44.75
53246;BME280;39569;51.090;-1.786;2023-07-28T01:50:20;99898.53;;;28.81;44.62
53246;BME280;39569;51.090;-1.786;2023-07-28T01:52:47;99899.34;;;28.82;44.82
53246;BME280;39569;51.090;-1.786;2023-07-28T01:55:13;99903.72;;;28.83;44.73
53246;BME280;39569;51.090;-1.786;2023-07-28T01:57:50;99899.53;;;28.85;44.90
53246;BME280;39569;51.090;-1.786;2023-07-28T02:00:17;99902.28;;;28.85;44.83
53246;BME280;39569;51.090;-1.786;2023-07-28T02:02:46;99903.91;;;28.86;44.94
53246;BME280;39569;51.090;-1.786;2023-07-28T02:05:13;99898.53;;;28.81;44.81
53246;BME280;39569;51.090;-1.786;2023-07-28T02:07:39;99894.97;;;28.81;44.52
53246;BME280;39569;51.090;-1.786;2023-07-28T02:10:06;99881.88;;;28.56;45.05
53246;BME280;39569;51.090;-1.786;2023-07-28T02:12:33;99893.91;;;28.46;45.24
53246;BME280;39569;51.090;-1.786;2023-07-28T02:15:00;99893.63;;;26.76;48.86
53246;BME280;39569;51.090;-1.786;2023-07-28T02:17:27;99885.41;;;27.36;47.71
53246;BME280;39569;51.090;-1.786;2023-07-28T02:19:55;99886.63;;;27.43;47.54
53246;BME280;39569;51.090;-1.786;2023-07-28T02:22:21;99898.69;;;27.29;47.72
53246;BME280;39569;51.090;-1.786;2023-07-28T02:24:48;99894.44;;;27.50;47.41
53246;BME280;39569;51.090;-1.786;2023-07-28T02:27:15;99901.22;;;27.79;46.61
53246;BME280;39569;51.090;-1.786;2023-07-28T02:29:41;99900.59;;;27.96;46.09
53246;BME280;39569;51.090;-1.786;2023-07-28T02:32:08;99894.00;;;27.97;46.36
53246;BME280;39569;51.090;-1.786;2023-07-28T02:34:35;99896.25;;;27.95;46.08
53246;BME280;39569;51.090;-1.786;2023-07-28T02:37:03;99892.53;;;28.35;45.33
53246;BME280;39569;51.090;-1.786;2023-07-28T02:39:30;99887.03;;;28.35;45.39
53246;BME280;39569;51.090;-1.786;2023-07-28T02:41:57;99897.47;;;28.47;45.38
53246;BME280;39569;51.090;-1.786;2023-07-28T02:44:24;99892.03;;;28.33;45.11
53246;BME280;39569;51.090;-1.786;2023-07-28T02:46:50;99881.53;;;28.13;45.41
53246;BME280;39569;51.090;-1.786;2023-07-28T02:49:17;99881.31;;;28.45;44.63
53246;BME280;39569;51.090;-1.786;2023-07-28T02:51:44;99882.03;;;28.37;45.19
53246;BME280;39569;51.090;-1.786;2023-07-28T02:54:12;99884.56;;;28.47;44.81
53246;BME280;39569;51.090;-1.786;2023-07-28T02:56:39;99878.81;;;28.35;44.83
53246;BME280;39569;51.090;-1.786;2023-07-28T02:59:06;99882.97;;;28.33;44.95
53246;BME280;39569;51.090;-1.786;2023-07-28T03:01:33;99883.91;;;28.28;45.14
53246;BME280;39569;51.090;-1.786;2023-07-28T03:04:00;99879.78;;;28.17;44.71
53246;BME280;39569;51.090;-1.786;2023-07-28T03:06:27;99891.81;;;28.07;45.03
53246;BME280;39569;51.090;-1.786;2023-07-28T03:08:54;99897.19;;;28.12;45.20
53246;BME280;39569;51.090;-1.786;2023-07-28T03:11:22;99898.53;;;28.01;45.20
53246;BME280;39569;51.090;-1.786;2023-07-28T03:13:49;99895.41;;;28.08;45.24
53246;BME280;39569;51.090;-1.786;2023-07-28T03:16:16;99905.06;;;28.05;44.90
53246;BME280;39569;51.090;-1.786;2023-07-28T03:18:43;99906.78;;;28.01;44.90
53246;BME280;39569;51.090;-1.786;2023-07-28T03:21:10;99906.91;;;27.96;44.84
53246;BME280;39569;51.090;-1.786;2023-07-28T03:23:36;99908.53;;;27.70;45.19
53246;BME280;39569;51.090;-1.786;2023-07-28T03:26:03;99903.03;;;27.30;45.74
53246;BME280;39569;51.090;-1.786;2023-07-28T03:28:31;99910.06;;;27.63;45.55
53246;BME280;39569;51.090;-1.786;2023-07-28T03:30:58;99912.03;;;27.49;45.66
53246;BME280;39569;51.090;-1.786;2023-07-28T03:33:25;99907.72;;;27.70;45.13
53246;BME280;39569;51.090;-1.786;2023-07-28T03:35:51;99902.88;;;27.67;45.08
53246;BME280;39569;51.090;-1.786;2023-07-28T03:38:18;99898.91;;;27.59;45.06
53246;BME280;39569;51.090;-1.786;2023-07-28T03:40:45;99906.13;;;27.55;45.01
53246;BME280;39569;51.090;-1.786;2023-07-28T03:43:12;99907.97;;;27.60;45.11
53246;BME280;39569;51.090;-1.786;2023-07-28T03:45:40;99908.47;;;27.62;44.77
53246;BME280;39569;51.090;-1.786;2023-07-28T03:48:07;99911.09;;;27.53;45.17
53246;BME280;39569;51.090;-1.786;2023-07-28T03:50:34;99915.88;;;27.48;45.36
53246;BME280;39569;51.090;-1.786;2023-07-28T03:53:00;99920.66;;;27.42;45.15
53246;BME280;39569;51.090;-1.786;2023-07-28T03:55:27;99919.16;;;27.36;45.52
53246;BME280;39569;51.090;-1.786;2023-07-28T03:57:54;99912.47;;;27.23;45.86
53246;BME280;39569;51.090;-1.786;2023-07-28T04:00:20;99914.19;;;27.06;45.83
53246;BME280;39569;51.090;-1.786;2023-07-28T04:02:48;99909.91;;;26.17;48.46
53246;BME280;39569;51.090;-1.786;2023-07-28T04:05:15;99917.28;;;26.72;46.64
53246;BME280;39569;51.090;-1.786;2023-07-28T04:07:42;99914.13;;;26.79;46.95
53246;BME280;39569;51.090;-1.786;2023-07-28T04:10:09;99914.78;;;26.89;46.85
53246;BME280;39569;51.090;-1.786;2023-07-28T04:12:35;99916.84;;;26.47;47.20
53246;BME280;39569;51.090;-1.786;2023-07-28T04:15:03;99914.22;;;26.74;47.49
53246;BME280;39569;51.090;-1.786;2023-07-28T04:17:29;99904.34;;;26.91;46.58
53246;BME280;39569;51.090;-1.786;2023-07-28T04:19:58;99915.00;;;26.93;46.96
53246;BME280;39569;51.090;-1.786;2023-07-28T04:22:24;99914.13;;;27.25;45.82
53246;BME280;39569;51.090;-1.786;2023-07-28T04:24:51;99910.28;;;27.39;45.88
53246;BME280;39569;51.090;-1.786;2023-07-28T04:27:19;99913.56;;;27.41;45.62
53246;BME280;39569;51.090;-1.786;2023-07-28T04:29:46;99913.50;;;27.28;45.63
53246;BME280;39569;51.090;-1.786;2023-07-28T04:32:12;99910.69;;;27.46;45.61
53246;BME280;39569;51.090;-1.786;2023-07-28T04:34:39;99912.72;;;27.41;45.76
53246;BME280;39569;51.090;-1.786;2023-07-28T04:37:07;99909.66;;;27.29;45.48
53246;BME280;39569;51.090;-1.786;2023-07-28T04:39:34;99902.56;;;27.41;45.57
53246;BME280;39569;51.090;-1.786;2023-07-28T04:42:01;99913.34;;;27.38;45.58
53246;BME280;39569;51.090;-1.786;2023-07-28T04:44:28;99918.31;;;27.36;45.43
53246;BME280;39569;51.090;-1.786;2023-07-28T04:46:55;99910.41;;;27.34;45.51
53246;BME280;39569;51.090;-1.786;2023-07-28T04:49:21;99914.84;;;27.44;45.44
53246;BME280;39569;51.090;-1.786;2023-07-28T04:51:48;99919.19;;;27.17;45.91
53246;BME280;39569;51.090;-1.786;2023-07-28T04:54:16;99916.63;;;27.07;46.18
53246;BME280;39569;51.090;-1.786;2023-07-28T04:56:43;99921.19;;;26.98;46.21
53246;BME280;39569;51.090;-1.786;2023-07-28T04:59:10;99913.91;;;27.21;45.62
53246;BME280;39569;51.090;-1.786;2023-07-28T05:01:37;99911.53;;;26.87;46.69
53246;BME280;39569;51.090;-1.786;2023-07-28T05:04:04;99905.25;;;27.00;45.89
53246;BME280;39569;51.090;-1.786;2023-07-28T05:06:31;99902.44;;;27.19;45.78
53246;BME280;39569;51.090;-1.786;2023-07-28T05:08:57;99914.72;;;27.21;46.25
53246;BME280;39569;51.090;-1.786;2023-07-28T05:11:25;99907.81;;;27.24;45.56
53246;BME280;39569;51.090;-1.786;2023-07-28T05:13:52;99919.56;;;26.97;46.63
53246;BME280;39569;51.090;-1.786;2023-07-28T05:16:19;99915.47;;;27.41;45.82
53246;BME280;39569;51.090;-1.786;2023-07-28T05:18:46;99916.69;;;27.62;45.43
53246;BME280;39569;51.090;-1.786;2023-07-28T05:21:12;99920.03;;;27.72;45.32
53246;BME280;39569;51.090;-1.786;2023-07-28T05:23:39;99923.09;;;27.71;44.79
53246;BME280;39569;51.090;-1.786;2023-07-28T05:26:06;99918.44;;;26.98;45.69
53246;BME280;39569;51.090;-1.786;2023-07-28T05:28:34;99913.59;;;26.95;46.46
53246;BME280;39569;51.090;-1.786;2023-07-28T05:31:04;99919.75;;;27.33;45.28
53246;BME280;39569;51.090;-1.786;2023-07-28T05:33:31;99922.69;;;27.37;45.14
53246;BME280;39569;51.090;-1.786;2023-07-28T05:36:01;99916.28;;;27.68;44.66
53246;BME280;39569;51.090;-1.786;2023-07-28T05:38:28;99916.59;;;26.62;46.60
53246;BME280;39569;51.090;-1.786;2023-07-28T05:40:56;99913.38;;;27.05;46.70
53246;BME280;39569;51.090;-1.786;2023-07-28T05:43:23;99920.91;;;27.27;45.96
53246;BME280;39569;51.090;-1.786;2023-07-28T05:45:51;99927.31;;;27.23;45.85
53246;BME280;39569;51.090;-1.786;2023-07-28T05:48:18;99918.72;;;27.43;45.26
53246;BME280;39569;51.090;-1.786;2023-07-28T05:50:45;99917.59;;;27.57;44.92
53246;BME280;39569;51.090;-1.786;2023-07-28T05:53:11;99922.34;;;27.92;44.07
53246;BME280;39569;51.090;-1.786;2023-07-28T05:55:39;99912.97;;;28.07;43.71
53246;BME280;39569;51.090;-1.786;2023-07-28T05:58:05;99911.00;;;27.58;44.87
53246;BME280;39569;51.090;-1.786;2023-07-28T06:00:32;99914.16;;;27.38;45.50
53246;BME280;39569;51.090;-1.786;2023-07-28T06:03:00;99909.19;;;28.17;44.00
53246;BME280;39569;51.090;-1.786;2023-07-28T06:05:27;99910.56;;;27.24;45.03
53246;BME280;39569;51.090;-1.786;2023-07-28T06:07:54;99915.53;;;27.90;44.11
53246;BME280;39569;51.090;-1.786;2023-07-28T06:10:21;99920.19;;;28.39;43.25
53246;BME280;39569;51.090;-1.786;2023-07-28T06:12:47;99920.88;;;28.44;43.81
53246;BME280;39569;51.090;-1.786;2023-07-28T06:15:14;99920.59;;;28.68;43.27
53246;BME280;39569;51.090;-1.786;2023-07-28T06:17:41;99920.53;;;28.81;42.82
53246;BME280;39569;51.090;-1.786;2023-07-28T06:20:10;99922.59;;;27.69;45.08
53246;BME280;39569;51.090;-1.786;2023-07-28T06:22:36;99923.25;;;28.37;43.73
53246;BME280;39569;51.090;-1.786;2023-07-28T06:25:03;99931.88;;;28.44;43.79
53246;BME280;39569;51.090;-1.786;2023-07-28T06:27:30;99930.19;;;29.01;43.13
53246;BME280;39569;51.090;-1.786;2023-07-28T06:29:57;99932.19;;;29.09;42.65
53246;BME280;39569;51.090;-1.786;2023-07-28T06:32:24;99934.13;;;29.08;42.98
53246;BME280;39569;51.090;-1.786;2023-07-28T06:34:51;99935.22;;;28.55;43.78
53246;BME280;39569;51.090;-1.786;2023-07-28T06:37:19;99930.03;;;28.75;43.74
53246;BME280;39569;51.090;-1.786;2023-07-28T06:39:46;99928.94;;;28.05;44.66
53246;BME280;39569;51.090;-1.786;2023-07-28T06:42:13;99936.03;;;28.55;43.95
53246;BME280;39569;51.090;-1.786;2023-07-28T06:44:40;99938.22;;;28.89;43.38
53246;BME280;39569;51.090;-1.786;2023-07-28T06:47:06;99941.47;;;29.13;42.87
53246;BME280;39569;51.090;-1.786;2023-07-28T06:49:33;99947.00;;;28.99;42.54
53246;BME280;39569;51.090;-1.786;2023-07-28T06:52:00;99944.41;;;28.94;42.87
53246;BME280;39569;51.090;-1.786;2023-07-28T06:54:28;99949.00;;;29.30;42.49
53246;BME280;39569;51.090;-1.786;2023-07-28T06:56:55;99949.19;;;29.11;42.71
53246;BME280;39569;51.090;-1.786;2023-07-28T06:59:22;99950.25;;;29.01;42.74
53246;BME280;39569;51.090;-1.786;2023-07-28T07:01:49;99960.25;;;29.20;42.67
53246;BME280;39569;51.090;-1.786;2023-07-28T07:04:16;99957.94;;;27.97;44.05
53246;BME280;39569;51.090;-1.786;2023-07-28T07:06:43;99961.81;;;27.83;45.28
53246;BME280;39569;51.090;-1.786;2023-07-28T07:09:10;99965.34;;;28.10;44.74
53246;BME280;39569;51.090;-1.786;2023-07-28T07:11:41;99962.78;;;28.85;43.50
53246;BME280;39569;51.090;-1.786;2023-07-28T07:14:08;99959.19;;;29.29;43.20
53246;BME280;39569;51.090;-1.786;2023-07-28T07:16:35;99966.53;;;29.12;42.91
53246;BME280;39569;51.090;-1.786;2023-07-28T07:19:02;99969.69;;;29.27;42.68
53246;BME280;39569;51.090;-1.786;2023-07-28T07:21:29;99968.44;;;29.33;42.53
53246;BME280;39569;51.090;-1.786;2023-07-28T07:23:56;99962.44;;;29.09;42.85
53246;BME280;39569;51.090;-1.786;2023-07-28T07:26:22;99964.00;;;29.24;42.62
53246;BME280;39569;51.090;-1.786;2023-07-28T07:28:50;99969.94;;;29.48;42.07
53246;BME280;39569;51.090;-1.786;2023-07-28T07:31:18;99969.84;;;28.78;42.92
53246;BME280;39569;51.090;-1.786;2023-07-28T07:33:45;99974.84;;;28.98;42.69
53246;BME280;39569;51.090;-1.786;2023-07-28T07:36:12;99967.03;;;28.91;42.97
53246;BME280;39569;51.090;-1.786;2023-07-28T07:38:39;99972.94;;;29.29;42.50
53246;BME280;39569;51.090;-1.786;2023-07-28T07:41:07;99967.97;;;29.79;41.65
53246;BME280;39569;51.090;-1.786;2023-07-28T07:43:36;99967.38;;;29.51;41.63
53246;BME280;39569;51.090;-1.786;2023-07-28T07:46:04;99968.81;;;29.18;42.35
53246;BME280;39569;51.090;-1.786;2023-07-28T07:48:30;99965.28;;;29.57;41.96
53246;BME280;39569;51.090;-1.786;2023-07-28T07:50:58;99973.84;;;29.47;42.26
53246;BME280;39569;51.090;-1.786;2023-07-28T07:53:24;99962.72;;;30.08;41.59
53246;BME280;39569;51.090;-1.786;2023-07-28T07:55:51;99964.53;;;30.38;41.16
53246;BME280;39569;51.090;-1.786;2023-07-28T07:58:18;99961.75;;;30.13;40.69
53246;BME280;39569;51.090;-1.786;2023-07-28T08:00:45;99965.59;;;30.03;40.91
53246;BME280;39569;51.090;-1.786;2023-07-28T08:03:13;99971.53;;;29.40;41.43
53246;BME280;39569;51.090;-1.786;2023-07-28T08:05:40;99974.38;;;30.05;40.87
53246;BME280;39569;51.090;-1.786;2023-07-28T08:08:07;99979.84;;;29.88;41.06
53246;BME280;39569;51.090;-1.786;2023-07-28T08:10:35;99977.44;;;29.56;41.90
53246;BME280;39569;51.090;-1.786;2023-07-28T08:13:02;99981.25;;;29.77;41.77
53246;BME280;39569;51.090;-1.786;2023-07-28T08:15:29;99987.53;;;29.38;43.09
53246;BME280;39569;51.090;-1.786;2023-07-28T08:17:56;99984.47;;;28.87;43.93
53246;BME280;39569;51.090;-1.786;2023-07-28T08:20:24;99994.22;;;29.76;42.69
53246;BME280;39569;51.090;-1.786;2023-07-28T08:22:51;99996.03;;;29.20;43.59
53246;BME280;39569;51.090;-1.786;2023-07-28T08:25:18;99997.31;;;29.75;43.56
53246;BME280;39569;51.090;-1.786;2023-07-28T08:27:45;99990.28;;;30.08;42.94
53246;BME280;39569;51.090;-1.786;2023-07-28T08:30:12;99998.13;;;29.45;43.62
53246;BME280;39569;51.090;-1.786;2023-07-28T08:32:40;99994.97;;;28.49;45.27
53246;BME280;39569;51.090;-1.786;2023-07-28T08:35:07;100005.69;;;28.37;45.90
53246;BME280;39569;51.090;-1.786;2023-07-28T08:37:36;100004.53;;;29.32;44.29
53246;BME280;39569;51.090;-1.786;2023-07-28T08:40:04;100008.47;;;29.17;44.22
53246;BME280;39569;51.090;-1.786;2023-07-28T08:42:36;99999.81;;;29.63;42.81
53246;BME280;39569;51.090;-1.786;2023-07-28T08:45:03;100004.78;;;29.22;43.15
53246;BME280;39569;51.090;-1.786;2023-07-28T08:47:31;99989.78;;;30.15;41.68
53246;BME280;39569;51.090;-1.786;2023-07-28T08:49:58;99992.63;;;30.49;40.99
53246;BME280;39569;51.090;-1.786;2023-07-28T08:52:25;99997.09;;;29.71;41.53
53246;BME280;39569;51.090;-1.786;2023-07-28T08:54:53;100003.00;;;29.78;41.71
53246;BME280;39569;51.090;-1.786;2023-07-28T08:57:20;99997.97;;;29.80;41.75
53246;BME280;39569;51.090;-1.786;2023-07-28T08:59:47;99995.41;;;30.01;41.09
53246;BME280;39569;51.090;-1.786;2023-07-28T09:02:15;99997.78;;;28.93;42.14
53246;BME280;39569;51.090;-1.786;2023-07-28T09:04:43;99996.78;;;28.89;42.66
53246;BME280;39569;51.090;-1.786;2023-07-28T09:07:10;99992.16;;;29.82;40.97
53246;BME280;39569;51.090;-1.786;2023-07-28T09:09:38;99992.28;;;30.59;40.28
53246;BME280;39569;51.090;-1.786;2023-07-28T09:12:08;99991.13;;;31.11;39.10
53246;BME280;39569;51.090;-1.786;2023-07-28T09:14:35;99982.88;;;30.94;37.85
53246;BME280;39569;51.090;-1.786;2023-07-28T09:17:07;99994.25;;;30.67;38.67
53246;BME280;39569;51.090;-1.786;2023-07-28T09:19:34;99996.13;;;31.18;37.87
53246;BME280;39569;51.090;-1.786;2023-07-28T09:22:02;99992.94;;;30.47;39.82
53246;BME280;39569;51.090;-1.786;2023-07-28T09:24:30;99989.38;;;30.89;38.52
53246;BME280;39569;51.090;-1.786;2023-07-28T09:26:58;99993.25;;;30.71;38.11
53246;BME280;39569;51.090;-1.786;2023-07-28T09:29:27;99998.66;;;29.94;39.38
53246;BME280;39569;51.090;-1.786;2023-07-28T09:32:02;99996.19;;;30.75;39.18
53246;BME280;39569;51.090;-1.786;2023-07-28T09:34:30;99992.44;;;30.28;39.21
53246;BME280;39569;51.090;-1.786;2023-07-28T09:36:58;99994.72;;;30.52;38.94
53246;BME280;39569;51.090;-1.786;2023-07-28T09:39:26;100008.31;;;29.75;39.98
53246;BME280;39569;51.090;-1.786;2023-07-28T09:41:53;100002.06;;;29.91;39.95
53246;BME280;39569;51.090;-1.786;2023-07-28T09:44:26;100004.00;;;29.91;40.63
53246;BME280;39569;51.090;-1.786;2023-07-28T09:46:56;99989.22;;;30.69;39.00
53246;BME280;39569;51.090;-1.786;2023-07-28T09:49:28;99990.59;;;31.26;37.79
53246;BME280;39569;51.090;-1.786;2023-07-28T09:52:00;99995.03;;;31.10;37.92
53246;BME280;39569;51.090;-1.786;2023-07-28T09:54:30;99985.00;;;32.68;36.11
53246;BME280;39569;51.090;-1.786;2023-07-28T09:57:00;99993.59;;;31.59;36.27
53246;BME280;39569;51.090;-1.786;2023-07-28T09:59:35;99992.00;;;32.66;35.06
53246;BME280;39569;51.090;-1.786;2023-07-28T10:02:04;99996.91;;;31.35;37.65
53246;BME280;39569;51.090;-1.786;2023-07-28T10:04:32;99994.97;;;31.27;36.95
53246;BME280;39569;51.090;-1.786;2023-07-28T10:07:00;99997.97;;;31.14;38.26
53246;BME280;39569;51.090;-1.786;2023-07-28T10:09:29;99998.66;;;30.93;37.66
53246;BME280;39569;51.090;-1.786;2023-07-28T10:11:56;100001.50;;;31.14;36.60
53246;BME280;39569;51.090;-1.786;2023-07-28T10:14:26;100006.22;;;30.37;37.96
53246;BME280;39569;51.090;-1.786;2023-07-28T10:16:56;100007.56;;;29.91;38.39
53246;BME280;39569;51.090;-1.786;2023-07-28T10:19:24;99998.28;;;30.52;38.33
53246;BME280;39569;51.090;-1.786;2023-07-28T10:21:58;100000.53;;;30.33;36.71
53246;BME280;39569;51.090;-1.786;2023-07-28T10:24:49;100001.63;;;31.35;37.00
53246;BME280;39569;51.090;-1.786;2023-07-28T10:27:28;100002.31;;;30.29;37.34
53246;BME280;39569;51.090;-1.786;2023-07-28T10:29:59;100004.75;;;29.74;37.59
53246;BME280;39569;51.090;-1.786;2023-07-28T10:32:28;99989.16;;;30.18;37.50
53246;BME280;39569;51.090;-1.786;2023-07-28T10:35:02;100004.22;;;30.20;36.48
53246;BME280;39569;51.090;-1.786;2023-07-28T10:37:32;100002.38;;;29.59;37.47
53246;BME280;39569;51.090;-1.786;2023-07-28T10:40:26;99991.47;;;30.33;36.86
53246;BME280;39569;51.090;-1.786;2023-07-28T10:42:55;99997.75;;;31.36;36.02
53246;BME280;39569;51.090;-1.786;2023-07-28T10:45:24;99998.94;;;31.01;36.35
53246;BME280;39569;51.090;-1.786;2023-07-28T10:47:53;100005.34;;;30.11;38.35
53246;BME280;39569;51.090;-1.786;2023-07-28T10:50:21;100003.28;;;30.42;37.06
53246;BME280;39569;51.090;-1.786;2023-07-28T10:52:48;99990.66;;;30.66;36.97
53246;BME280;39569;51.090;-1.786;2023-07-28T10:55:15;99995.69;;;30.30;35.99
53246;BME280;39569;51.090;-1.786;2023-07-28T10:57:43;99988.41;;;30.60;36.23
53246;BME280;39569;51.090;-1.786;2023-07-28T11:00:11;99989.88;;;30.91;36.85
53246;BME280;39569;51.090;-1.786;2023-07-28T11:02:40;99989.25;;;30.86;36.39
53246;BME280;39569;51.090;-1.786;2023-07-28T11:05:13;99990.44;;;31.31;35.69
53246;BME280;39569;51.090;-1.786;2023-07-28T11:07:41;99991.63;;;31.13;35.41
53246;BME280;39569;51.090;-1.786;2023-07-28T11:10:09;99987.47;;;31.82;33.52
53246;BME280;39569;51.090;-1.786;2023-07-28T11:12:39;99988.81;;;31.76;33.30
53246;BME280;39569;51.090;-1.786;2023-07-28T11:15:08;99983.69;;;30.77;34.18
53246;BME280;39569;51.090;-1.786;2023-07-28T11:17:38;99996.22;;;31.55;33.98
53246;BME280;39569;51.090;-1.786;2023-07-28T11:20:15;99997.75;;;32.11;33.25
53246;BME280;39569;51.090;-1.786;2023-07-28T11:22:43;99986.44;;;30.77;34.67
53246;BME280;39569;51.090;-1.786;2023-07-28T11:25:11;99986.78;;;30.67;36.19
53246;BME280;39569;51.090;-1.786;2023-07-28T11:27:39;99989.38;;;30.72;35.19
53246;BME280;39569;51.090;-1.786;2023-07-28T11:30:07;99981.03;;;31.32;33.58
53246;BME280;39569;51.090;-1.786;2023-07-28T11:32:35;99979.66;;;31.93;34.29
53246;BME280;39569;51.090;-1.786;2023-07-28T11:35:04;99982.97;;;31.78;33.11
53246;BME280;39569;51.090;-1.786;2023-07-28T11:37:32;99977.34;;;32.24;32.88
53246;BME280;39569;51.090;-1.786;2023-07-28T11:40:00;99984.00;;;32.52;33.48
53246;BME280;39569;51.090;-1.786;2023-07-28T11:42:28;99992.72;;;31.21;35.11
53246;BME280;39569;51.090;-1.786;2023-07-28T11:44:55;99985.00;;;30.63;35.17
53246;BME280;39569;51.090;-1.786;2023-07-28T11:47:22;99987.66;;;31.48;34.87
53246;BME280;39569;51.090;-1.786;2023-07-28T11:49:49;99983.13;;;32.31;33.24
53246;BME280;39569;51.090;-1.786;2023-07-28T11:52:17;99985.19;;;31.93;35.31
53246;BME280;39569;51.090;-1.786;2023-07-28T11:54:45;99982.13;;;31.86;33.97
53246;BME280;39569;51.090;-1.786;2023-07-28T11:57:12;99979.78;;;31.59;33.69
53246;BME280;39569;51.090;-1.786;2023-07-28T11:59:39;99965.00;;;32.22;32.99
53246;BME280;39569;51.090;-1.786;2023-07-28T12:02:07;99970.00;;;33.35;32.73
53246;BME280;39569;51.090;-1.786;2023-07-28T12:04:36;99969.69;;;33.04;32.46
53246;BME280;39569;51.090;-1.786;2023-07-28T12:07:05;99980.75;;;32.71;33.11
53246;BME280;39569;51.090;-1.786;2023-07-28T12:09:33;99979.94;;;33.03;32.62
53246;BME280;39569;51.090;-1.786;2023-07-28T12:12:01;99977.13;;;33.24;32.87
53246;BME280;39569;51.090;-1.786;2023-07-28T12:14:31;99986.13;;;33.21;33.20
53246;BME280;39569;51.090;-1.786;2023-07-28T12:16:59;99986.78;;;31.94;33.57
53246;BME280;39569;51.090;-1.786;2023-07-28T12:19:26;99990.06;;;31.87;34.77
53246;BME280;39569;51.090;-1.786;2023-07-28T12:21:53;99983.81;;;32.69;33.40
53246;BME280;39569;51.090;-1.786;2023-07-28T12:24:20;99982.66;;;32.91;33.14
53246;BME280;39569;51.090;-1.786;2023-07-28T12:26:46;99993.63;;;32.67;34.42
53246;BME280;39569;51.090;-1.786;2023-07-28T12:29:15;99986.97;;;32.18;33.64
53246;BME280;39569;51.090;-1.786;2023-07-28T12:31:42;99987.47;;;32.41;33.41
53246;BME280;39569;51.090;-1.786;2023-07-28T12:34:10;99986.59;;;31.15;34.91
53246;BME280;39569;51.090;-1.786;2023-07-28T12:36:36;99985.28;;;31.21;34.94
53246;BME280;39569;51.090;-1.786;2023-07-28T12:39:03;99995.94;;;31.31;35.00
53246;BME280;39569;51.090;-1.786;2023-07-28T12:41:31;99988.38;;;30.77;36.35
53246;BME280;39569;51.090;-1.786;2023-07-28T12:43:58;99993.38;;;31.72;35.49
53246;BME280;39569;51.090;-1.786;2023-07-28T12:46:26;100004.13;;;31.19;36.10
53246;BME280;39569;51.090;-1.786;2023-07-28T12:48:53;99987.09;;;31.63;35.66
53246;BME280;39569;51.090;-1.786;2023-07-28T12:51:20;100000.06;;;31.00;35.87
53246;BME280;39569;51.090;-1.786;2023-07-28T12:53:47;100008.75;;;30.08;37.63